Shope Gardens, Pennsylvania
Current Conditions -  °F | °C
As of 10:56 PM on Friday 24 Oct 2014 (Local Time) from KMDT Reporting Station
Broken Clouds Broken Clouds  
Wind Chill: 54°   Ceiling: 22000
Heat Index: 54°   Visibility: 10mi
Dew Point: 39°   Wind: 9mph
Humidity: 57%   Direction: 310°NW
Pressure: 29.93"   Gusts: NA
Location:  40.1873°N, 76.6948°W
Report Text: KMDT 250256Z 31008KT 10SM BKN220 12/04 A2993 RMK AO2 SLP135 T01220039 51010
Loading
Personal Weather Stations






























Interactive Weather Map
Tropical Storm Tracking
New forecast layout! Learn more

10-Day Weather Forecast

Advertisements
Track Severe Weather on mobile